| time (UTC) | temp F | wind direction | speed knots | gust knots | rain 1hr in | rain 24hr in | rain mn in | humidity % | barometer mb |
| 20260507083459 | 42 | 225 | 0.0 | 1.7 | 0.00 | 0.00 | 0.00 | 74 | 1011.2 |
| 20260507082959 | 42 | 227 | 0.0 | 1.7 | 0.00 | 0.00 | 0.00 | 73 | 1011.3 |
| 20260507082459 | 42 | 218 | 0.0 | 0.9 | 0.00 | 0.00 | 0.00 | 74 | 1011.3 |
| 20260507081959 | 41 | 0 | 0.0 | 0.0 | 0.00 | 0.00 | 0.00 | 73 | 1011.3 |
| 20260507080959 | 41 | 241 | 0.0 | 0.9 | 0.00 | 0.00 | 0.00 | 72 | 1011.5 |
| 20260507080458 | 40 | 210 | 0.0 | 0.9 | 0.00 | 0.00 | 0.00 | 71 | 1011.5 |
| 20260507075459 | 40 | 213 | 0.0 | 1.7 | 0.00 | 0.00 | 0.00 | 71 | 1011.5 |
| 20260507074959 | 39 | 210 | 0.0 | 1.7 | 0.00 | 0.00 | 0.00 | 70 | 1011.5 |
| 20260507074459 | 39 | 108 | 0.0 | 0.9 | 0.00 | 0.00 | 0.00 | 68 | 1011.6 |
| 20260507073959 | 38 | 108 | 0.0 | 0.9 | 0.00 | 0.00 | 0.00 | 68 | 1011.7 |
| 20260507073459 | 38 | 0 | 0.0 | 0.0 | 0.00 | 0.00 | 0.00 | 67 | 1011.7 |
| 20260507072958 | 39 | 0 | 0.0 | 0.0 | 0.00 | 0.00 | 0.00 | 66 | 1011.7 |
| 20260507070459 | 40 | 0 | 0.0 | 0.0 | 0.00 | 0.00 | 0.00 | 62 | 1012.3 |
| 20260507065959 | 40 | 85 | 0.0 | 0.9 | 0.00 | 0.00 | 0.00 | 59 | 1012.5 |
| 20260507065459 | 40 | 88 | 0.0 | 0.9 | 0.00 | 0.00 | 0.00 | 59 | 1012.4 |
| 20260507064958 | 40 | 108 | 0.0 | 1.7 | 0.00 | 0.00 | 0.00 | 57 | 1012.5 |
| 20260507064459 | 40 | 171 | 0.0 | 2.6 | 0.00 | 0.00 | 0.00 | 57 | 1012.5 |
| 20260507063959 | 40 | 181 | 0.0 | 2.6 | 0.00 | 0.00 | 0.00 | 56 | 1012.6 |
| 20260507063459 | 41 | 142 | 0.0 | 0.9 | 0.00 | 0.00 | 0.00 | 55 | 1012.6 |
| 20260507062959 | 41 | 125 | 0.0 | 0.9 | 0.00 | 0.00 | 0.00 | 54 | 1012.7 |
| 20260507062458 | 41 | 0 | 0.0 | 0.0 | 0.00 | 0.00 | 0.00 | 55 | 1012.8 |
| 20260507061959 | 41 | 0 | 0.0 | 0.0 | 0.00 | 0.00 | 0.00 | 54 | 1012.8 |
| 20260507060959 | 41 | 0 | 0.0 | 0.0 | 0.00 | 0.00 | 0.00 | 53 | 1013.0 |
| 20260507055959 | 42 | 123 | 0.0 | 0.9 | 0.00 | 0.00 | 0.00 | 54 | 1013.1 |
| 20260507055458 | 42 | 123 | 0.0 | 0.9 | 0.00 | 0.00 | 0.00 | 54 | 1013.2 |
| 20260507054958 | 41 | 0 | 0.0 | 0.0 | 0.00 | 0.00 | 0.00 | 55 | 1013.3 |
| 20260507053959 | 41 | 104 | 0.0 | 0.9 | 0.00 | 0.00 | 0.00 | 55 | 1013.4 |
| 20260507053459 | 41 | 105 | 0.0 | 0.9 | 0.00 | 0.00 | 0.00 | 55 | 1013.5 |
| 20260507052459 | 41 | 0 | 0.0 | 0.0 | 0.00 | 0.00 | 0.00 | 56 | 1013.5 |
| 20260507051959 | 41 | 0 | 0.0 | 0.0 | 0.00 | 0.00 | 0.00 | 55 | 1013.5 |
| 20260507050458 | 42 | 0 | 0.0 | 0.0 | 0.00 | 0.00 | 0.00 | 54 | 1013.6 |
| 20260507045459 | 42 | 0 | 0.0 | 0.0 | 0.00 | 0.00 | 0.00 | 52 | 1013.8 |
| 20260507044958 | 43 | 0 | 0.0 | 0.0 | 0.00 | 0.00 | 0.00 | 52 | 1013.8 |
| 20260507044458 | 43 | 0 | 0.0 | 0.0 | 0.00 | 0.00 | 0.00 | 52 | 1013.8 |
| 20260507043959 | 43 | 0 | 0.0 | 0.0 | 0.00 | 0.00 | 0.00 | 52 | 1013.8 |
| 20260507043459 | 43 | 0 | 0.0 | 0.0 | 0.00 | 0.00 | 0.00 | 52 | 1013.9 |
| 20260507042959 | 43 | 0 | 0.0 | 0.0 | 0.00 | 0.00 | 0.00 | 53 | 1013.9 |
| 20260507042459 | 42 | 0 | 0.0 | 0.0 | 0.00 | 0.00 | 0.00 | 53 | 1014.0 |
| 20260507041958 | 43 | 0 | 0.0 | 0.0 | 0.00 | 0.00 | 0.00 | 52 | 1014.1 |
| 20260507041458 | 43 | 0 | 0.0 | 0.0 | 0.00 | 0.00 | 0.00 | 52 | 1014.2 |
| 20260507040959 | 43 | 0 | 0.0 | 0.0 | 0.00 | 0.00 | 0.00 | 52 | 1014.2 |
| 20260507040459 | 43 | 0 | 0.0 | 0.0 | 0.00 | 0.00 | 0.00 | 53 | 1014.2 |
| 20260507035458 | 44 | 62 | 0.0 | 0.9 | 0.00 | 0.00 | 0.00 | 50 | 1014.2 |
| 20260507034958 | 44 | 0 | 0.0 | 0.0 | 0.00 | 0.00 | 0.00 | 50 | 1014.2 |
| 20260507034458 | 44 | 0 | 0.0 | 0.0 | 0.00 | 0.00 | 0.00 | 50 | 1014.2 |
| 20260507033959 | 44 | 0 | 0.0 | 0.0 | 0.00 | 0.00 | 0.00 | 49 | 1014.3 |
| 20260507033459 | 44 | 0 | 0.0 | 0.0 | 0.00 | 0.00 | 0.00 | 48 | 1014.4 |
| 20260507032458 | 45 | 0 | 0.0 | 0.0 | 0.00 | 0.00 | 0.00 | 49 | 1014.4 |
| 20260507031958 | 45 | 0 | 0.0 | 0.0 | 0.00 | 0.00 | 0.00 | 49 | 1014.4 |
| 20260507031458 | 45 | 0 | 0.0 | 0.0 | 0.00 | 0.00 | 0.00 | 49 | 1014.4 |
| 20260507030459 | 46 | 0 | 0.0 | 0.0 | 0.00 | 0.00 | 0.00 | 47 | 1014.5 |
| 20260507025959 | 47 | 0 | 0.0 | 0.0 | 0.00 | 0.00 | 0.00 | 45 | 1014.5 |
| 20260507025458 | 47 | 0 | 0.0 | 0.0 | 0.00 | 0.00 | 0.00 | 44 | 1014.5 |
| 20260507025000 | 48 | 0 | 0.0 | 0.0 | 0.00 | 0.00 | 0.00 | 43 | 1014.4 |
| 20260507024459 | 48 | 0 | 0.0 | 0.0 | 0.00 | 0.00 | 0.00 | 42 | 1014.5 |
| 20260507023458 | 48 | 0 | 0.0 | 0.0 | 0.00 | 0.00 | 0.00 | 43 | 1014.5 |
| 20260507022958 | 48 | 0 | 0.0 | 0.0 | 0.00 | 0.00 | 0.00 | 41 | 1014.4 |
| 20260507021959 | 49 | 0 | 0.0 | 0.0 | 0.00 | 0.00 | 0.00 | 40 | 1014.4 |
| 20260507021459 | 49 | 0 | 0.0 | 0.0 | 0.00 | 0.00 | 0.00 | 40 | 1014.4 |
| 20260507020959 | 50 | 0 | 0.0 | 0.0 | 0.00 | 0.00 | 0.00 | 40 | 1014.4 |
| 20260507015959 | 50 | 13 | 0.0 | 0.9 | 0.00 | 0.00 | 0.00 | 42 | 1014.3 |
| 20260507015458 | 50 | 13 | 0.0 | 0.9 | 0.00 | 0.00 | 0.00 | 40 | 1014.3 |
| 20260507014958 | 51 | 0 | 0.0 | 0.0 | 0.00 | 0.00 | 0.00 | 40 | 1014.4 |
| 20260507014459 | 52 | 0 | 0.0 | 0.0 | 0.00 | 0.00 | 0.00 | 38 | 1014.3 |
| 20260507013458 | 54 | 0 | 0.0 | 0.0 | 0.00 | 0.00 | 0.00 | 33 | 1014.4 |
| 20260507012958 | 54 | 0 | 0.0 | 0.0 | 0.00 | 0.00 | 0.00 | 33 | 1014.2 |
| 20260507012458 | 55 | 294 | 0.0 | 0.9 | 0.00 | 0.00 | 0.00 | 33 | 1014.3 |
| 20260507011958 | 55 | 294 | 0.0 | 0.9 | 0.00 | 0.00 | 0.00 | 32 | 1014.4 |
| 20260507011459 | 56 | 298 | 0.0 | 0.9 | 0.00 | 0.00 | 0.00 | 32 | 1014.4 |
| 20260507010458 | 56 | 292 | 0.0 | 2.6 | 0.00 | 0.00 | 0.00 | 31 | 1014.4 |
| 20260507005958 | 57 | 292 | 0.0 | 1.7 | 0.00 | 0.00 | 0.00 | 30 | 1014.4 |
| 20260507005458 | 57 | 298 | 0.9 | 2.6 | 0.00 | 0.00 | 0.00 | 30 | 1014.4 |
| 20260507004959 | 57 | 297 | 0.9 | 3.5 | 0.00 | 0.00 | 0.00 | 30 | 1014.4 |
| 20260507004458 | 57 | 292 | 1.7 | 3.5 | 0.00 | 0.00 | 0.00 | 29 | 1014.3 |
| 20260507003958 | 57 | 285 | 1.7 | 4.3 | 0.00 | 0.00 | 0.00 | 30 | 1014.4 |
| 20260507002958 | 58 | 293 | 1.7 | 3.5 | 0.00 | 0.00 | 0.00 | 29 | 1014.5 |
| 20260507002458 | 58 | 295 | 1.7 | 5.2 | 0.00 | 0.00 | 0.00 | 29 | 1014.5 |
| 20260507001959 | 58 | 295 | 1.7 | 5.2 | 0.00 | 0.00 | 0.00 | 29 | 1014.6 |
| 20260507001458 | 58 | 290 | 1.7 | 5.2 | 0.00 | 0.00 | 0.00 | 29 | 1014.6 |
| 20260507000458 | 57 | 280 | 1.7 | 5.2 | 0.00 | 0.00 | 0.00 | 29 | 1014.7 |
| 20260506235959 | 58 | 287 | 1.7 | 5.2 | 0.00 | 0.00 | 0.00 | 28 | 1014.7 |
| 20260506235458 | 58 | 289 | 2.6 | 7.0 | 0.00 | 0.00 | 0.00 | 28 | 1014.9 |
| 20260506234958 | 58 | 289 | 1.7 | 7.0 | 0.00 | 0.00 | 0.00 | 30 | 1014.8 |
| 20260506234458 | 58 | 289 | 2.6 | 7.0 | 0.00 | 0.00 | 0.00 | 29 | 1014.8 |
| 20260506233958 | 58 | 284 | 2.6 | 7.0 | 0.00 | 0.00 | 0.00 | 28 | 1014.8 |
| 20260506233458 | 58 | 284 | 2.6 | 5.2 | 0.00 | 0.00 | 0.00 | 28 | 1014.8 |
| 20260506232958 | 58 | 291 | 1.7 | 5.2 | 0.00 | 0.00 | 0.00 | 29 | 1014.9 |
| 20260506232459 | 58 | 302 | 1.7 | 3.5 | 0.00 | 0.00 | 0.00 | 29 | 1014.9 |
| 20260506230958 | 59 | 287 | 2.6 | 9.6 | 0.00 | 0.00 | 0.00 | 29 | 1015.0 |
| 20260506230458 | 58 | 290 | 1.7 | 9.6 | 0.00 | 0.00 | 0.00 | 29 | 1015.0 |
| 20260506224958 | 57 | 291 | 1.7 | 4.3 | 0.00 | 0.00 | 0.00 | 29 | 1015.1 |
| 20260506224458 | 58 | 283 | 1.7 | 5.2 | 0.00 | 0.00 | 0.00 | 28 | 1015.3 |
| 20260506223958 | 58 | 291 | 1.7 | 5.2 | 0.00 | 0.00 | 0.00 | 29 | 1015.3 |
| 20260506223458 | 58 | 296 | 1.7 | 5.2 | 0.00 | 0.00 | 0.00 | 28 | 1015.3 |
| 20260506222959 | 58 | 300 | 2.6 | 6.1 | 0.00 | 0.00 | 0.00 | 28 | 1015.5 |
| 20260506222458 | 58 | 293 | 1.7 | 7.0 | 0.00 | 0.00 | 0.00 | 29 | 1015.4 |
| 20260506221458 | 58 | 290 | 1.7 | 6.1 | 0.00 | 0.00 | 0.00 | 29 | 1015.5 |
| 20260506220958 | 58 | 291 | 0.9 | 5.2 | 0.00 | 0.00 | 0.00 | 28 | 1015.5 |
| 20260506220458 | 58 | 301 | 0.0 | 3.5 | 0.00 | 0.00 | 0.00 | 30 | 1015.6 |
| 20260506215959 | 58 | 291 | 0.9 | 2.6 | 0.00 | 0.00 | 0.00 | 29 | 1015.6 |
| 20260506214958 | 57 | 297 | 0.9 | 3.5 | 0.00 | 0.00 | 0.00 | 29 | 1015.9 |
| 20260506213958 | 57 | 285 | 2.6 | 7.0 | 0.00 | 0.00 | 0.00 | 29 | 1015.9 |
| 20260506212958 | 57 | 290 | 1.7 | 6.1 | 0.00 | 0.00 | 0.00 | 29 | 1016.0 |
| 20260506211958 | 57 | 286 | 2.6 | 8.7 | 0.00 | 0.00 | 0.00 | 30 | 1016.2 |
| 20260506211458 | 56 | 282 | 2.6 | 7.0 | 0.00 | 0.00 | 0.00 | 30 | 1016.2 |
| 20260506210958 | 56 | 284 | 3.5 | 7.8 | 0.00 | 0.00 | 0.00 | 30 | 1016.3 |
| 20260506205958 | 57 | 290 | 0.9 | 6.1 | 0.00 | 0.00 | 0.00 | 31 | 1016.5 |
| 20260506205458 | 56 | 286 | 1.7 | 7.0 | 0.00 | 0.00 | 0.00 | 30 | 1016.6 |
| 20260506204958 | 57 | 291 | 2.6 | 7.0 | 0.00 | 0.00 | 0.00 | 29 | 1016.8 |
| 20260506204458 | 57 | 290 | 1.7 | 5.2 | 0.00 | 0.00 | 0.00 | 29 | 1016.8 |
| 20260506203959 | 58 | 284 | 2.6 | 6.1 | 0.00 | 0.00 | 0.00 | 29 | 1016.8 |
| 20260506203458 | 58 | 283 | 2.6 | 9.6 | 0.00 | 0.00 | 0.00 | 29 | 1016.9 |
| 20260506202958 | 57 | 281 | 1.7 | 9.6 | 0.00 | 0.00 | 0.00 | 29 | 1016.9 |
| 20260506201959 | 57 | 290 | 2.6 | 5.2 | 0.00 | 0.00 | 0.00 | 29 | 1017.0 |
| 20260506201458 | 58 | 289 | 1.7 | 5.2 | 0.00 | 0.00 | 0.00 | 29 | 1017.2 |
| 20260506200458 | 57 | 285 | 2.6 | 7.0 | 0.00 | 0.00 | 0.00 | 31 | 1017.2 |
| 20260506195958 | 56 | 286 | 3.5 | 7.8 | 0.00 | 0.00 | 0.00 | 30 | 1017.2 |
| 20260506195458 | 57 | 281 | 2.6 | 8.7 | 0.00 | 0.00 | 0.00 | 31 | 1017.4 |
| 20260506194958 | 56 | 280 | 1.7 | 8.7 | 0.00 | 0.00 | 0.00 | 32 | 1017.3 |
| 20260506193958 | 55 | 285 | 2.6 | 7.8 | 0.00 | 0.00 | 0.00 | 30 | 1017.5 |
| 20260506193458 | 56 | 293 | 1.7 | 5.2 | 0.00 | 0.00 | 0.00 | 30 | 1017.5 |
| 20260506192958 | 56 | 292 | 2.6 | 7.0 | 0.00 | 0.00 | 0.00 | 30 | 1017.6 |
| 20260506192458 | 56 | 287 | 3.5 | 7.0 | 0.00 | 0.00 | 0.00 | 31 | 1017.6 |
| 20260506191958 | 56 | 287 | 2.6 | 7.0 | 0.00 | 0.00 | 0.00 | 32 | 1017.6 |
| 20260506191458 | 55 | 287 | 2.6 | 7.0 | 0.00 | 0.00 | 0.00 | 30 | 1017.6 |
| 20260506190958 | 55 | 273 | 2.6 | 7.0 | 0.00 | 0.00 | 0.00 | 31 | 1017.6 |
| 20260506190458 | 55 | 273 | 2.6 | 9.6 | 0.00 | 0.00 | 0.00 | 31 | 1017.6 |
| 20260506185958 | 55 | 283 | 3.5 | 9.6 | 0.00 | 0.00 | 0.00 | 30 | 1017.8 |
| 20260506185457 | 55 | 286 | 2.6 | 7.8 | 0.00 | 0.00 | 0.00 | 31 | 1017.8 |
| 20260506184958 | 55 | 290 | 2.6 | 7.8 | 0.00 | 0.00 | 0.00 | 30 | 1017.8 |
| 20260506184458 | 55 | 293 | 1.7 | 7.8 | 0.00 | 0.00 | 0.00 | 31 | 1018.0 |
| 20260506183457 | 55 | 282 | 2.6 | 8.7 | 0.00 | 0.00 | 0.00 | 31 | 1018.0 |
| 20260506182957 | 54 | 281 | 4.3 | 11.3 | 0.00 | 0.00 | 0.00 | 33 | 1018.1 |
| 20260506181958 | 55 | 301 | 0.9 | 6.1 | 0.00 | 0.00 | 0.00 | 34 | 1018.2 |
| 20260506180958 | 54 | 287 | 2.6 | 7.8 | 0.00 | 0.00 | 0.00 | 33 | 1018.3 |
| 20260506175957 | 53 | 285 | 2.6 | 7.8 | 0.00 | 0.00 | 0.00 | 34 | 1018.3 |
| 20260506174958 | 54 | 282 | 3.5 | 9.6 | 0.00 | 0.00 | 0.00 | 32 | 1018.4 |
| 20260506173958 | 52 | 288 | 1.7 | 5.2 | 0.00 | 0.00 | 0.00 | 34 | 1018.5 |
| 20260506172958 | 53 | 290 | 1.7 | 6.1 | 0.00 | 0.00 | 0.00 | 34 | 1018.6 |
| 20260506172457 | 52 | 292 | 1.7 | 7.8 | 0.00 | 0.00 | 0.00 | 35 | 1018.5 |
| 20260506171458 | 52 | 287 | 3.5 | 10.4 | 0.00 | 0.00 | 0.00 | 35 | 1018.6 |
| 20260506170958 | 53 | 289 | 2.6 | 10.4 | 0.00 | 0.00 | 0.00 | 33 | 1018.6 |
| 20260506170458 | 54 | 300 | 1.7 | 5.2 | 0.00 | 0.00 | 0.00 | 34 | 1018.7 |
| 20260506164957 | 52 | 306 | 2.6 | 7.0 | 0.00 | 0.00 | 0.00 | 34 | 1018.9 |
| 20260506163957 | 52 | 291 | 2.6 | 8.7 | 0.00 | 0.00 | 0.00 | 35 | 1018.9 |
| 20260506163458 | 51 | 296 | 2.6 | 8.7 | 0.00 | 0.00 | 0.00 | 35 | 1018.9 |
| 20260506162958 | 51 | 300 | 2.6 | 9.6 | 0.00 | 0.00 | 0.00 | 36 | 1019.0 |
| 20260506162458 | 51 | 292 | 2.6 | 9.6 | 0.00 | 0.00 | 0.00 | 36 | 1019.0 |
| 20260506161957 | 51 | 290 | 1.7 | 7.8 | 0.00 | 0.00 | 0.00 | 36 | 1018.9 |
| 20260506161457 | 51 | 290 | 2.6 | 9.6 | 0.00 | 0.00 | 0.00 | 37 | 1019.0 |
| 20260506160957 | 51 | 289 | 3.5 | 9.6 | 0.00 | 0.00 | 0.00 | 36 | 1019.0 |
| 20260506160457 | 51 | 291 | 1.7 | 6.1 | 0.00 | 0.00 | 0.00 | 36 | 1018.9 |
| 20260506155958 | 51 | 297 | 1.7 | 7.0 | 0.00 | 0.00 | 0.00 | 36 | 1018.9 |
| 20260506155457 | 51 | 298 | 2.6 | 7.0 | 0.00 | 0.00 | 0.00 | 37 | 1018.8 |
| 20260506153958 | 51 | 304 | 2.6 | 7.8 | 0.00 | 0.00 | 0.00 | 37 | 1018.8 |
| 20260506153457 | 51 | 301 | 1.7 | 6.1 | 0.00 | 0.00 | 0.00 | 37 | 1019.0 |
| 20260506152957 | 51 | 298 | 1.7 | 6.1 | 0.00 | 0.00 | 0.00 | 39 | 1019.0 |
| 20260506151958 | 51 | 308 | 0.9 | 4.3 | 0.00 | 0.00 | 0.00 | 40 | 1018.8 |
| 20260506151458 | 50 | 305 | 1.7 | 4.3 | 0.00 | 0.00 | 0.00 | 40 | 1018.9 |
| 20260506150457 | 49 | 295 | 1.7 | 5.2 | 0.00 | 0.00 | 0.00 | 42 | 1018.9 |
| 20260506145957 | 49 | 288 | 1.7 | 5.2 | 0.00 | 0.00 | 0.00 | 45 | 1018.9 |
| 20260506145458 | 48 | 283 | 1.7 | 5.2 | 0.00 | 0.00 | 0.00 | 46 | 1018.9 |
| 20260506144958 | 48 | 285 | 1.7 | 5.2 | 0.00 | 0.00 | 0.00 | 46 | 1018.9 |
| 20260506144457 | 48 | 285 | 1.7 | 5.2 | 0.00 | 0.00 | 0.00 | 46 | 1019.1 |
| 20260506143457 | 46 | 282 | 1.7 | 4.3 | 0.00 | 0.00 | 0.00 | 52 | 1019.1 |
| 20260506142957 | 46 | 285 | 1.7 | 3.5 | 0.00 | 0.00 | 0.00 | 53 | 1019.1 |
| 20260506142457 | 46 | 288 | 0.9 | 3.5 | 0.00 | 0.00 | 0.00 | 53 | 1019.1 |
| 20260506141458 | 44 | 280 | 0.9 | 4.3 | 0.00 | 0.00 | 0.00 | 58 | 1019.1 |
| 20260506140957 | 44 | 277 | 0.9 | 2.6 | 0.00 | 0.00 | 0.00 | 60 | 1019.1 |
| 20260506140457 | 43 | 279 | 0.0 | 2.6 | 0.00 | 0.00 | 0.00 | 63 | 1019.2 |
| 20260506135957 | 42 | 281 | 0.9 | 2.6 | 0.00 | 0.00 | 0.00 | 64 | 1019.1 |
| 20260506135457 | 41 | 283 | 0.9 | 2.6 | 0.00 | 0.00 | 0.00 | 65 | 1019.2 |
| 20260506134458 | 40 | 280 | 0.9 | 3.5 | 0.00 | 0.00 | 0.00 | 65 | 1019.2 |
| 20260506133957 | 39 | 283 | 0.9 | 2.6 | 0.00 | 0.00 | 0.00 | 68 | 1019.0 |
| 20260506133457 | 39 | 284 | 0.0 | 2.6 | 0.00 | 0.00 | 0.00 | 68 | 1018.9 |
| 20260506132957 | 38 | 284 | 0.0 | 1.7 | 0.00 | 0.00 | 0.00 | 70 | 1019.0 |
| 20260506132457 | 37 | 284 | 0.9 | 1.7 | 0.00 | 0.00 | 0.00 | 70 | 1019.1 |
| 20260506131957 | 37 | 285 | 0.9 | 2.6 | 0.00 | 0.00 | 0.00 | 71 | 1019.0 |
| 20260506131457 | 36 | 282 | 1.7 | 2.6 | 0.00 | 0.00 | 0.00 | 72 | 1019.0 |
| 20260506130958 | 36 | 281 | 0.9 | 2.6 | 0.00 | 0.00 | 0.00 | 72 | 1019.0 |
| 20260506125957 | 35 | 285 | 1.7 | 2.6 | 0.00 | 0.00 | 0.00 | 73 | 1018.9 |
| 20260506125457 | 35 | 284 | 0.9 | 2.6 | 0.00 | 0.00 | 0.00 | 74 | 1019.0 |
| 20260506124957 | 34 | 284 | 0.0 | 1.7 | 0.00 | 0.00 | 0.00 | 76 | 1019.0 |
| 20260506124458 | 34 | 283 | 0.0 | 0.9 | 0.00 | 0.00 | 0.00 | 77 | 1018.9 |
| 20260506123457 | 33 | 280 | 1.7 | 2.6 | 0.00 | 0.00 | 0.00 | 77 | 1018.7 |
| 20260506122957 | 33 | 279 | 0.9 | 2.6 | 0.00 | 0.00 | 0.00 | 78 | 1018.5 |
| 20260506122457 | 33 | 279 | 0.9 | 2.6 | 0.00 | 0.00 | 0.00 | 78 | 1018.5 |
| 20260506121457 | 32 | 283 | 0.0 | 2.6 | 0.00 | 0.00 | 0.00 | 78 | 1018.4 |
| 20260506120458 | 32 | 281 | 0.0 | 0.9 | 0.00 | 0.00 | 0.00 | 80 | 1018.3 |
| 20260506115958 | 31 | 279 | 0.0 | 0.9 | 0.00 | 0.00 | 0.00 | 80 | 1018.2 |
| 20260506115457 | 31 | 280 | 0.0 | 0.9 | 0.00 | 0.00 | 0.00 | 81 | 1018.1 |
| 20260506114957 | 31 | 283 | 0.0 | 0.9 | 0.00 | 0.00 | 0.00 | 81 | 1018.1 |
| 20260506114458 | 31 | 0 | 0.0 | 0.0 | 0.00 | 0.00 | 0.00 | 81 | 1018.0 |
| 20260506113457 | 31 | 0 | 0.0 | 0.0 | 0.00 | 0.00 | 0.00 | 81 | 1017.8 |
| 20260506112957 | 31 | 0 | 0.0 | 0.0 | 0.00 | 0.00 | 0.00 | 81 | 1017.8 |
| 20260506111957 | 31 | 0 | 0.0 | 0.0 | 0.00 | 0.00 | 0.00 | 83 | 1017.7 |
| 20260506111457 | 31 | 0 | 0.0 | 0.0 | 0.00 | 0.00 | 0.00 | 83 | 1017.6 |
| 20260506110958 | 31 | 0 | 0.0 | 0.0 | 0.00 | 0.00 | 0.00 | 83 | 1017.6 |
| 20260506110457 | 31 | 0 | 0.0 | 0.0 | 0.00 | 0.00 | 0.00 | 83 | 1017.5 |
| 20260506105957 | 31 | 0 | 0.0 | 0.0 | 0.00 | 0.00 | 0.00 | 84 | 1017.5 |
| 20260506105457 | 31 | 0 | 0.0 | 0.0 | 0.00 | 0.00 | 0.00 | 84 | 1017.3 |
| 20260506104957 | 31 | 0 | 0.0 | 0.0 | 0.00 | 0.00 | 0.00 | 83 | 1017.4 |
| 20260506102958 | 31 | 0 | 0.0 | 0.0 | 0.00 | 0.00 | 0.00 | 82 | 1017.3 |
| 20260506102457 | 31 | 0 | 0.0 | 0.0 | 0.00 | 0.00 | 0.00 | 83 | 1017.2 |
| 20260506101957 | 31 | 0 | 0.0 | 0.0 | 0.00 | 0.00 | 0.00 | 82 | 1017.2 |
| 20260506101457 | 31 | 0 | 0.0 | 0.0 | 0.00 | 0.00 | 0.00 | 81 | 1017.2 |
| 20260506100957 | 31 | 0 | 0.0 | 0.0 | 0.00 | 0.00 | 0.00 | 81 | 1017.3 |
| 20260506100457 | 31 | 0 | 0.0 | 0.0 | 0.00 | 0.00 | 0.00 | 81 | 1017.1 |
| 20260506095958 | 31 | 0 | 0.0 | 0.0 | 0.00 | 0.00 | 0.00 | 80 | 1017.0 |
| 20260506095457 | 32 | 0 | 0.0 | 0.0 | 0.00 | 0.00 | 0.00 | 80 | 1017.2 |
| 20260506094957 | 32 | 0 | 0.0 | 0.0 | 0.00 | 0.00 | 0.00 | 79 | 1017.1 |
| 20260506094457 | 32 | 0 | 0.0 | 0.0 | 0.00 | 0.00 | 0.00 | 78 | 1017.0 |
| 20260506093957 | 32 | 0 | 0.0 | 0.0 | 0.00 | 0.00 | 0.00 | 77 | 1016.9 |
| 20260506093457 | 32 | 0 | 0.0 | 0.0 | 0.00 | 0.00 | 0.00 | 77 | 1016.9 |
| 20260506092957 | 32 | 0 | 0.0 | 0.0 | 0.00 | 0.00 | 0.00 | 76 | 1016.9 |
| 20260506091957 | 33 | 0 | 0.0 | 0.0 | 0.00 | 0.00 | 0.00 | 75 | 1016.8 |
| 20260506091457 | 33 | 0 | 0.0 | 0.0 | 0.00 | 0.00 | 0.00 | 74 | 1016.8 |
| 20260506090457 | 33 | 0 | 0.0 | 0.0 | 0.00 | 0.00 | 0.00 | 74 | 1016.7 |
| 20260506085957 | 33 | 0 | 0.0 | 0.0 | 0.00 | 0.00 | 0.00 | 75 | 1016.7 |
| 20260506085458 | 33 | 0 | 0.0 | 0.0 | 0.00 | 0.00 | 0.00 | 75 | 1016.6 |
| 20260506084957 | 33 | 0 | 0.0 | 0.0 | 0.00 | 0.00 | 0.00 | 74 | 1016.6 |
| 20260506084457 | 34 | 0 | 0.0 | 0.0 | 0.00 | 0.00 | 0.00 | 75 | 1016.6 |